Time;durP1;ratioP1;P1;durP2;ratioP2;P2;SDS_P1;SDS_P2;PMS_P1;PMS_P2;Temp;Humidity;BMP_temperature;BMP_pressure;BME280_temperature;BME280_humidity;BME280_pressure;Samples;Min_cycle;Max_cycle;Signal;HPM_P1;HPM_P2
2022/08/10 03:59:10;;;;;;;1.98;1.87;;;;;;;19.13;57.94;101037.34;6547912;26;20092;-86
2022/08/10 04:02:13;;;;;;;3.20;2.03;;;;;;;19.13;57.94;101051.00;6579823;27;34134;-86
2022/08/10 04:05:36;;;;;;;2.00;1.80;;;;;;;19.17;57.93;101045.94;6579322;27;34149;-86
2022/08/10 04:08:41;;;;;;;4.12;2.00;;;;;;;19.16;57.96;101045.09;6580297;27;33576;-86
2022/08/10 04:11:43;;;;;;;2.25;2.10;;;;;;;19.22;57.91;101049.69;6588544;27;34682;-86
2022/08/10 04:14:47;;;;;;;2.42;1.80;;;;;;;19.24;57.81;101050.28;6592703;27;34898;-86
2022/08/10 04:17:54;;;;;;;4.10;1.85;;;;;;;19.29;57.64;101049.66;6579307;27;34086;-86
2022/08/10 04:21:16;;;;;;;3.05;1.90;;;;;;;19.36;57.31;101047.69;6579509;27;33684;-86
2022/08/10 04:24:21;;;;;;;1.77;1.67;;;;;;;19.43;57.15;101048.50;6578597;27;34957;-86
2022/08/10 04:27:31;;;;;;;1.80;1.70;;;;;;;19.52;57.17;101045.53;6579135;27;34909;-86
2022/08/10 04:30:35;;;;;;;2.03;1.83;;;;;;;19.66;56.74;101045.22;6579120;27;34020;-88
2022/08/10 04:33:42;;;;;;;5.18;1.80;;;;;;;19.76;56.04;101060.28;6579646;27;34503;-90
2022/08/10 04:36:47;;;;;;;2.10;1.90;;;;;;;19.87;55.65;101049.47;6580223;27;34727;-90
2022/08/10 04:39:50;;;;;;;2.83;1.87;;;;;;;19.96;55.56;101047.31;6580609;27;34520;-87
2022/08/10 04:42:53;;;;;;;2.05;1.80;;;;;;;20.03;55.19;101045.34;6582349;27;33780;-87
2022/08/10 04:46:03;;;;;;;3.25;1.90;;;;;;;20.13;54.88;101048.41;6580080;27;35004;-86
2022/08/10 04:49:27;;;;;;;1.90;1.80;;;;;;;20.17;54.46;101049.63;6580720;27;34197;-86
2022/08/10 04:52:49;;;;;;;2.92;1.83;;;;;;;20.27;54.08;101051.88;6581999;27;33361;-86
2022/08/10 04:55:52;;;;;;;2.17;1.70;;;;;;;20.35;54.18;101051.53;6579705;27;33778;-86
2022/08/10 04:58:55;;;;;;;2.22;1.80;;;;;;;20.42;53.55;101056.09;6578948;27;34259;-86
2022/08/10 05:01:58;;;;;;;1.85;1.75;;;;;;;20.53;52.95;101047.19;6579270;27;34053;-86
2022/08/10 05:05:21;;;;;;;1.80;1.60;;;;;;;20.58;52.85;101050.09;6579591;27;33917;-86
2022/08/10 05:08:25;;;;;;;3.03;1.85;;;;;;;20.68;52.50;101055.88;6579861;27;34052;-86
2022/08/10 05:11:28;;;;;;;2.05;1.83;;;;;;;20.70;52.17;101061.94;6579844;27;35503;-86
2022/08/10 05:14:30;;;;;;;1.98;1.77;;;;;;;20.79;52.05;101060.56;6579628;27;34930;-86
2022/08/10 05:17:34;;;;;;;1.80;1.65;;;;;;;20.89;51.67;101062.78;6582887;27;33909;-86
2022/08/10 05:20:38;;;;;;;1.70;1.60;;;;;;;20.99;51.45;101057.59;6579611;27;34028;-86
2022/08/10 05:23:40;;;;;;;1.92;1.67;;;;;;;21.08;50.82;101060.00;6577437;27;32559;-86
2022/08/10 05:26:44;;;;;;;2.58;1.87;;;;;;;21.13;51.13;101057.41;6579383;27;34001;-87
2022/08/10 05:30:09;;;;;;;2.55;1.70;;;;;;;21.25;50.75;101058.31;6580040;27;33993;-86
2022/08/10 05:33:12;;;;;;;4.22;1.67;;;;;;;21.45;50.08;101055.31;6579745;27;33543;-86
2022/08/10 05:36:16;;;;;;;1.65;1.52;;;;;;;21.49;49.75;101054.59;6579183;27;33775;-86
2022/08/10 05:39:19;;;;;;;3.87;1.80;;;;;;;21.55;49.41;101052.00;6579191;27;34541;-86
2022/08/10 05:42:34;;;;;;;2.45;2.15;;;;;;;21.66;49.34;101049.28;6578827;27;34764;-88
2022/08/10 05:45:37;;;;;;;2.80;1.70;;;;;;;21.74;48.65;101048.13;6579143;27;34654;-87
2022/08/10 05:49:00;;;;;;;2.87;1.87;;;;;;;21.82;48.40;101049.66;6576863;27;34028;-87
2022/08/10 05:52:04;;;;;;;2.20;1.55;;;;;;;21.97;47.74;101041.84;6579013;27;34612;-86
2022/08/10 05:55:09;;;;;;;3.85;1.55;;;;;;;22.12;47.17;101044.94;6578888;27;34750;-87
2022/08/10 05:58:12;;;;;;;2.10;1.55;;;;;;;22.22;47.03;101049.03;6576811;27;33452;-87
2022/08/10 06:01:17;;;;;;;3.90;1.55;;;;;;;22.36;46.43;101047.72;6578502;27;34119;-87
2022/08/10 06:04:28;;;;;;;1.70;1.42;;;;;;;22.42;45.68;101041.25;6578212;27;34816;-87
2022/08/10 06:07:32;;;;;;;1.25;1.20;;;;;;;22.40;45.61;101049.72;6578528;27;34951;-86
2022/08/10 06:10:37;;;;;;;5.70;2.35;;;;;;;22.52;45.34;101044.25;6579282;27;35376;-86
2022/08/10 06:17:30;;;;;;;4.30;1.80;;;;;;;22.80;44.50;101050.87;6576712;27;32410;-86
2022/08/10 06:20:33;;;;;;;3.72;1.70;;;;;;;23.01;43.89;101041.16;6583078;27;34626;-86
2022/08/10 06:23:38;;;;;;;3.03;1.67;;;;;;;23.08;43.31;101050.09;6579610;27;34155;-85
2022/08/10 06:26:46;;;;;;;4.37;1.77;;;;;;;23.20;43.26;101048.13;6581096;27;34246;-86
2022/08/10 06:29:52;;;;;;;2.33;1.48;;;;;;;23.36;43.05;101041.00;6581279;27;33363;-86
2022/08/10 06:32:58;;;;;;;1.90;1.55;;;;;;;23.54;42.65;101040.78;6579804;27;33986;-86
2022/08/10 06:36:03;;;;;;;3.00;1.60;;;;;;;23.57;42.27;101038.62;6581629;27;34008;-85
2022/08/10 06:39:06;;;;;;;1.60;1.33;;;;;;;23.60;42.19;101033.47;6578711;27;33620;-85
2022/08/10 06:42:34;;;;;;;1.27;1.10;;;;;;;23.79;41.64;101044.28;6581818;27;34850;-85
2022/08/10 06:45:46;;;;;;;3.15;1.40;;;;;;;23.77;41.14;101050.00;6584002;27;34043;-86
2022/08/10 06:49:12;;;;;;;2.37;1.50;;;;;;;23.87;40.98;101043.84;6584216;27;32478;-85
2022/08/10 06:52:15;;;;;;;1.75;1.30;;;;;;;23.85;40.96;101041.34;6583793;27;35083;-86
2022/08/10 06:55:22;;;;;;;1.77;1.20;;;;;;;23.89;41.57;101037.00;6588601;27;33948;-85
2022/08/10 06:58:50;;;;;;;3.33;1.40;;;;;;;24.20;39.66;101035.56;6588436;27;32587;-86
2022/08/10 07:02:14;;;;;;;3.28;1.70;;;;;;;24.12;39.40;101038.75;6578248;27;32510;-85
2022/08/10 07:05:21;;;;;;;2.03;1.10;;;;;;;23.93;39.52;101032.69;6579141;27;34233;-85
2022/08/10 07:08:30;;;;;;;2.78;1.20;;;;;;;24.02;39.47;101024.03;6581147;27;34065;-86
2022/08/10 07:11:34;;;;;;;2.03;1.25;;;;;;;24.20;39.31;101037.50;6581754;27;34557;-85
2022/08/10 07:14:41;;;;;;;3.12;1.23;;;;;;;24.38;38.62;101039.94;6577347;27;33625;-85
2022/08/10 07:17:45;;;;;;;1.27;1.15;;;;;;;24.69;38.29;101034.91;6581280;27;34383;-85
2022/08/10 07:20:51;;;;;;;2.40;1.30;;;;;;;24.97;37.81;101025.59;6583545;27;33856;-85
2022/08/10 07:23:57;;;;;;;1.37;1.25;;;;;;;25.03;36.93;101027.31;6579464;27;32919;-85
2022/08/10 07:27:05;;;;;;;2.08;1.20;;;;;;;25.16;36.50;101028.88;6578335;27;32655;-88
2022/08/10 07:30:08;;;;;;;4.03;1.50;;;;;;;25.22;35.90;101025.09;6579127;27;34073;-89
2022/08/10 07:33:16;;;;;;;1.08;1.05;;;;;;;25.23;35.82;101020.41;6577479;27;34031;-85
2022/08/10 07:36:21;;;;;;;2.45;1.10;;;;;;;25.39;35.48;101022.22;6577779;27;33614;-85
2022/08/10 07:39:32;;;;;;;1.37;1.20;;;;;;;25.51;35.32;101019.31;6580271;27;33686;-85
2022/08/10 07:42:58;;;;;;;1.70;1.10;;;;;;;25.51;35.28;101020.13;6577564;27;32831;-85
2022/08/10 07:46:08;;;;;;;1.48;1.10;;;;;;;25.62;35.29;101020.19;6579044;27;34152;-85
2022/08/10 07:49:17;;;;;;;1.25;1.12;;;;;;;25.85;34.66;101022.63;6579375;27;34374;-85
2022/08/10 07:52:25;;;;;;;1.40;1.30;;;;;;;26.05;34.47;101024.72;6579466;27;33613;-85
2022/08/10 07:55:28;;;;;;;0.70;0.70;;;;;;;25.90;33.81;101022.69;6584811;27;34025;-84
2022/08/10 07:59:03;;;;;;;1.45;0.85;;;;;;;26.01;33.98;101024.44;6588526;27;35109;-84
2022/08/10 08:02:16;;;;;;;1.23;1.00;;;;;;;26.01;33.83;101026.34;6585053;27;32668;-85
2022/08/10 08:05:24;;;;;;;2.05;1.30;;;;;;;25.96;34.28;101021.62;6580251;27;32816;-85
2022/08/10 08:08:48;;;;;;;;;;;;;;;26.22;33.90;101024.56;6583268;27;34755;-89
2022/08/10 08:11:53;;;;;;;3.40;1.12;;;;;;;26.37;33.48;101021.06;6588903;26;34522;-88
2022/08/10 08:14:58;;;;;;;2.17;1.00;;;;;;;26.36;32.81;101025.75;6598216;26;34376;-89
2022/08/10 08:18:04;;;;;;;1.05;1.00;;;;;;;26.50;32.74;101023.37;6597840;27;35396;-85
2022/08/10 08:21:07;;;;;;;1.25;1.00;;;;;;;26.69;32.48;101016.28;6580957;27;35380;-85
2022/08/10 08:24:33;;;;;;;2.05;1.30;;;;;;;26.89;33.35;101020.22;6579447;27;33735;-85
2022/08/10 08:27:39;;;;;;;0.95;0.80;;;;;;;26.61;32.83;101019.53;6579491;27;33709;-85
2022/08/10 08:30:50;;;;;;;3.00;1.00;;;;;;;26.84;32.60;101014.66;6579111;27;34733;-85
2022/08/10 08:33:55;;;;;;;2.05;0.90;;;;;;;27.00;32.83;101023.81;6576120;27;34312;-84
2022/08/10 08:37:01;;;;;;;0.90;0.75;;;;;;;26.82;32.27;101014.09;6577866;27;33539;-85
2022/08/10 08:40:09;;;;;;;1.12;0.80;;;;;;;26.95;32.33;101015.53;6578444;27;32307;-85
2022/08/10 08:43:21;;;;;;;0.82;0.82;;;;;;;27.13;32.20;101012.28;6579700;27;34353;-84
2022/08/10 08:47:05;;;;;;;3.25;0.90;;;;;;;27.12;32.38;101003.16;6582507;27;32238;-84
2022/08/10 08:50:50;;;;;;;2.10;1.15;;;;;;;27.17;31.79;101012.56;6557798;27;34281;-84
2022/08/10 08:54:26;;;;;;;2.80;1.23;;;;;;;27.45;32.28;101000.19;6580094;27;33583;-85
2022/08/10 08:58:00;;;;;;;1.95;1.08;;;;;;;27.56;31.69;101001.84;6579564;27;32449;-85
2022/08/10 09:01:18;;;;;;;1.08;1.02;;;;;;;27.46;31.71;101001.84;6578485;27;33898;-85
2022/08/10 09:04:36;;;;;;;1.80;1.35;;;;;;;27.70;31.69;101000.19;6577149;27;33242;-85
2022/08/10 09:08:07;;;;;;;1.48;1.25;;;;;;;27.78;30.87;101005.19;6577852;27;34016;-85
2022/08/10 09:11:20;;;;;;;0.98;0.98;;;;;;;27.91;30.58;101003.81;6575376;27;33798;-85
2022/08/10 09:14:35;;;;;;;1.17;1.08;;;;;;;27.52;30.90;100986.91;6575377;27;32484;-84
2022/08/10 09:18:04;;;;;;;0.75;0.75;;;;;;;27.59;30.89;100980.00;6578318;27;33665;-86
2022/08/10 09:21:38;;;;;;;3.35;1.10;;;;;;;27.84;30.47;100983.03;6575240;27;34447;-85
2022/08/10 09:25:13;;;;;;;1.23;1.10;;;;;;;28.13;31.60;100977.72;6542810;27;33772;-85
2022/08/10 09:28:23;;;;;;;1.90;1.12;;;;;;;28.23;30.06;100975.78;6582581;27;34422;-85
2022/08/10 09:31:39;;;;;;;2.92;1.00;;;;;;;28.36;30.03;100981.81;6579260;27;33898;-85
2022/08/10 09:35:06;;;;;;;1.85;0.98;;;;;;;28.12;29.84;100979.69;6579351;27;34849;-85
2022/08/10 09:38:50;;;;;;;1.90;1.40;;;;;;;28.26;30.01;100980.75;6581692;27;33744;-88
2022/08/10 09:42:04;;;;;;;3.42;1.02;;;;;;;28.37;29.49;100969.63;6596164;27;35351;-85
2022/08/10 09:45:21;;;;;;;0.98;0.70;;;;;;;28.45;29.02;100969.06;6582899;27;32971;-85
2022/08/10 09:48:49;;;;;;;1.17;0.80;;;;;;;28.43;28.74;100976.84;6578841;27;34033;-85
2022/08/10 09:52:19;;;;;;;2.33;0.98;;;;;;;28.42;28.84;100973.25;6577978;27;32810;-84
2022/08/10 09:55:42;;;;;;;2.85;1.27;;;;;;;28.54;28.95;100969.31;6596973;26;35789;-85
2022/08/10 09:59:21;;;;;;;0.70;0.70;;;;;;;28.83;28.54;100961.97;6599409;26;35131;-85
2022/08/10 10:02:45;;;;;;;3.42;1.15;;;;;;;28.99;27.66;100948.84;6590874;27;35460;-85
2022/08/10 10:06:09;;;;;;;2.08;1.30;;;;;;;29.11;27.70;100959.63;6577680;27;32454;-84
2022/08/10 10:09:38;;;;;;;0.75;0.75;;;;;;;29.26;27.30;100970.59;6579219;27;33550;-85
2022/08/10 10:12:53;;;;;;;6.30;0.93;;;;;;;29.10;27.17;100946.84;6579929;27;34133;-85
2022/08/10 10:16:20;;;;;;;3.60;1.17;;;;;;;29.21;27.19;100947.62;6582275;27;32221;-84
2022/08/10 10:19:41;;;;;;;0.80;0.80;;;;;;;29.29;27.24;100950.59;6578472;27;32845;-85
2022/08/10 10:23:10;;;;;;;4.25;0.93;;;;;;;29.34;26.99;100944.19;6579236;27;33876;-85
2022/08/10 10:26:40;;;;;;;2.00;0.85;;;;;;;29.01;27.61;100946.59;6579483;27;34558;-85
2022/08/10 10:29:45;;;;;;;1.02;0.60;;;;;;;29.11;26.83;100940.22;6577647;27;32768;-85
2022/08/10 10:33:24;;;;;;;2.37;0.77;;;;;;;29.49;26.19;100932.13;6578161;27;33207;-85
2022/08/10 10:36:28;;;;;;;0.50;0.50;;;;;;;29.74;24.79;100931.91;6579629;27;33580;-85
2022/08/10 10:39:33;;;;;;;0.75;0.70;;;;;;;29.63;24.92;100924.78;6578519;27;32647;-85
2022/08/10 10:43:00;;;;;;;1.27;1.00;;;;;;;29.78;25.37;100927.44;6579649;27;35282;-85
2022/08/10 10:46:40;;;;;;;0.60;0.60;;;;;;;30.02;24.53;100924.69;6583169;27;33778;-85
2022/08/10 10:50:11;;;;;;;2.60;0.85;;;;;;;30.50;23.89;100927.44;6582026;27;34157;-85
2022/08/10 10:53:23;;;;;;;0.60;0.60;;;;;;;30.38;23.84;100921.50;6582554;27;34771;-88
2022/08/10 10:56:35;;;;;;;0.65;0.60;;;;;;;30.71;24.33;100911.34;6584308;27;33961;-86
2022/08/10 11:00:09;;;;;;;0.80;0.80;;;;;;;31.24;24.14;100896.34;6577839;27;32810;-85
2022/08/10 11:03:22;;;;;;;0.40;0.40;;;;;;;31.75;22.10;100905.75;6579164;27;33035;-85
2022/08/10 11:06:40;;;;;;;3.30;0.68;;;;;;;32.02;21.37;100903.00;6581869;27;32380;-85
2022/08/10 11:09:49;;;;;;;1.15;0.65;;;;;;;31.80;21.96;100912.06;6577577;27;32642;-85
2022/08/10 11:13:18;;;;;;;3.45;0.80;;;;;;;32.20;21.61;100906.81;6577216;27;33893;-85
2022/08/10 11:16:47;;;;;;;1.55;0.57;;;;;;;33.60;21.04;100900.53;6578972;27;34055;-85
2022/08/10 11:20:06;;;;;;;1.75;0.88;;;;;;;33.95;19.90;100898.72;6577833;27;32266;-85
2022/08/10 11:23:35;;;;;;;1.42;0.88;;;;;;;33.76;19.96;100890.59;6579476;27;35363;-89
2022/08/10 11:26:41;;;;;;;0.88;0.60;;;;;;;33.23;21.03;100887.78;6578794;27;35174;-86
2022/08/10 11:30:09;;;;;;;2.05;0.80;;;;;;;32.89;20.92;100881.63;6579648;27;35198;-85
2022/08/10 11:33:36;;;;;;;2.55;0.70;;;;;;;33.76;19.82;100875.81;6579334;27;34487;-85
2022/08/10 11:37:09;;;;;;;0.60;0.50;;;;;;;34.02;18.29;100881.47;6578963;27;34458;-84
2022/08/10 11:40:35;;;;;;;1.00;0.70;;;;;;;34.99;17.67;100875.75;6578836;27;33947;-85
2022/08/10 11:43:44;;;;;;;1.23;0.60;;;;;;;36.75;16.35;100879.12;6576702;27;34076;-85
2022/08/10 11:46:56;;;;;;;0.52;0.47;;;;;;;37.73;15.79;100877.84;6576727;27;32616;-85
2022/08/10 11:50:06;;;;;;;0.43;0.43;;;;;;;37.35;15.78;100881.72;6577628;27;34801;-85
2022/08/10 11:53:17;;;;;;;0.73;0.65;;;;;;;38.84;14.80;100864.47;6578712;27;33676;-90
2022/08/10 11:56:30;;;;;;;0.85;0.65;;;;;;;38.89;14.48;100872.72;6579110;27;33959;-86
2022/08/10 12:03:06;;;;;;;0.77;0.57;;;;;;;38.72;14.58;100868.97;6577679;27;32808;-86
2022/08/10 12:06:17;;;;;;;2.37;0.50;;;;;;;40.41;13.95;100864.97;6579424;27;33723;-86
2022/08/10 12:09:42;;;;;;;0.62;0.40;;;;;;;40.43;13.40;100859.78;6579901;27;34382;-86
2022/08/10 12:13:31;;;;;;;0.50;0.50;;;;;;;41.41;12.64;100864.19;6607490;26;34788;-85
2022/08/10 12:16:38;;;;;;;0.45;0.40;;;;;;;40.65;12.93;100863.91;6574041;27;32584;-85
2022/08/10 12:19:44;;;;;;;0.70;0.50;;;;;;;37.44;15.62;100868.41;6587563;27;32417;-86
2022/08/10 12:23:38;;;;;;;1.33;0.80;;;;;;;35.91;17.28;100863.31;6608447;27;35582;-89
2022/08/10 12:26:52;;;;;;;1.87;0.52;;;;;;;34.33;19.55;100856.28;6593254;27;33314;-86
2022/08/10 12:30:11;;;;;;;0.60;0.50;;;;;;;33.38;20.19;100862.28;6615248;27;34395;-85
2022/08/10 12:34:13;;;;;;;1.05;0.50;;;;;;;33.71;19.15;100865.59;6614823;27;34202;-85
2022/08/10 12:37:25;;;;;;;0.60;0.60;;;;;;;36.48;16.44;100851.63;6436025;27;34980;-86
2022/08/10 12:40:35;;;;;;;0.98;0.50;;;;;;;39.54;14.53;100849.94;6483901;27;33394;-85
2022/08/10 12:43:45;;;;;;;0.50;0.50;;;;;;;40.85;13.46;100839.28;6587532;27;33326;-85
2022/08/10 12:47:26;;;;;;;0.70;0.57;;;;;;;41.72;12.77;100849.00;6592893;27;32446;-86
2022/08/10 12:50:39;;;;;;;2.85;0.50;;;;;;;42.67;12.13;100842.31;6611750;27;33670;-86
2022/08/10 12:54:00;;;;;;;1.30;0.40;;;;;;;43.27;11.69;100827.25;6588376;27;33491;-85
2022/08/10 12:57:08;;;;;;;0.95;0.50;;;;;;;44.24;11.02;100825.97;6611306;27;35299;-85
2022/08/10 13:00:14;;;;;;;1.05;0.50;;;;;;;43.16;11.77;100837.66;6606791;27;34854;-85
2022/08/10 13:03:22;;;;;;;2.83;0.70;;;;;;;41.59;12.45;100822.12;6606545;27;34851;-85
2022/08/10 13:06:48;;;;;;;1.42;0.70;;;;;;;38.39;14.96;100831.78;6607028;27;34654;-85
2022/08/10 13:09:52;;;;;;;0.35;0.35;;;;;;;36.83;16.61;100823.28;6606697;27;33942;-85
2022/08/10 13:12:59;;;;;;;1.00;0.80;;;;;;;39.41;14.88;100827.50;6607182;26;34128;-85
2022/08/10 13:16:04;;;;;;;0.90;0.90;;;;;;;41.55;13.23;100821.25;6607897;27;34081;-85
2022/08/10 13:19:12;;;;;;;0.60;0.60;;;;;;;42.69;12.15;100813.63;6593401;27;32909;-85
2022/08/10 13:22:16;;;;;;;0.85;0.85;;;;;;;44.17;10.91;100813.75;6593473;27;33176;-85
2022/08/10 13:25:27;;;;;;;0.50;0.50;;;;;;;43.57;11.13;100812.94;6609969;27;34058;-86
2022/08/10 13:28:42;;;;;;;0.82;0.77;;;;;;;40.29;13.36;100806.66;6587388;27;32718;-85
2022/08/10 13:31:51;;;;;;;0.88;0.50;;;;;;;40.86;13.12;100807.03;6585110;27;32753;-86
2022/08/10 13:35:16;;;;;;;1.17;0.50;;;;;;;38.44;14.82;100806.25;6606190;27;33903;-85
2022/08/10 13:38:20;;;;;;;1.42;0.40;;;;;;;37.79;14.97;100806.16;6608248;27;34314;-85
2022/08/10 13:41:27;;;;;;;1.00;0.70;;;;;;;39.53;13.87;100795.59;6605771;27;34633;-85
2022/08/10 13:44:31;;;;;;;0.68;0.57;;;;;;;40.88;12.91;100799.00;6605183;27;34132;-85
2022/08/10 13:47:34;;;;;;;0.73;0.40;;;;;;;42.35;11.99;100805.09;6583852;27;32966;-85
2022/08/10 13:50:57;;;;;;;0.50;0.50;;;;;;;42.62;11.54;100796.53;6604912;27;34173;-85
2022/08/10 13:54:01;;;;;;;1.67;0.60;;;;;;;40.86;12.76;100787.25;6586115;27;32307;-85
2022/08/10 13:57:05;;;;;;;1.70;0.30;;;;;;;37.74;15.02;100795.19;6604065;27;34174;-85
2022/08/10 14:00:09;;;;;;;0.62;0.50;;;;;;;35.86;16.67;100786.72;6583960;27;33086;-85
2022/08/10 14:03:36;;;;;;;1.27;0.70;;;;;;;38.04;15.10;100792.94;6605655;27;35248;-85
2022/08/10 14:06:40;;;;;;;0.50;0.50;;;;;;;40.15;13.47;100783.75;6606933;27;34066;-85
2022/08/10 14:09:46;;;;;;;2.28;0.70;;;;;;;41.74;12.28;100780.75;6587304;27;34537;-85
2022/08/10 14:12:49;;;;;;;0.60;0.60;;;;;;;42.19;12.22;100773.34;6607277;27;33743;-85
2022/08/10 14:15:55;;;;;;;0.98;0.77;;;;;;;42.18;11.68;100772.50;6586517;27;32632;-85
2022/08/10 14:19:11;;;;;;;1.37;0.60;;;;;;;42.25;11.62;100771.81;6605884;27;34505;-85
2022/08/10 14:22:18;;;;;;;2.15;0.70;;;;;;;40.57;12.58;100758.44;6606355;27;34028;-85
2022/08/10 14:25:50;;;;;;;2.15;0.70;;;;;;;38.15;14.33;100768.78;6587019;27;33679;-88
